To NAV CANADA Home Page Login to a new session Search on AWWS site Disclaimer Vers la page française équivalente Tips FAQ What's new on the site To the Forecasts and Observations / NOTAM section To "File a Flight Plan" website Publications and other links Update of the User's profile FIC Telephone Numbers My Weather Data Folder Route Weather Data Regional Weather Data Local Weather Data To the Forecasts and Observations / NOTAM section
Request Generated 08/06/2020 at 18:35:19 UTC . Weather information available at that time is displayed.


Go to a specific product

Save this request - Inactive

METAR/TAF

OTTAWA/MACDONALD-CARTIER INTL/ON    

METAR CYOW 061800Z 24005KT 210V010 15SM SCT045 SCT100 SCT240 23/11 A3011 RMK CU3AC1CI1 AC TR CI TR SLP200 DENSITY ALT 1300FT=
METAR CYOW 061700Z VRB04KT 15SM SCT040 SCT100 SCT240 23/12 A3012 RMK CU3AC1CI1 AC TR CI TR SLP202 DENSITY ALT 1200FT=
METAR CYOW 061600Z 23006KT 210V310 15SM FEW030 FEW100 FEW240 21/12 A3013 RMK CU1AC1CI1 CU TR AC TR CI TR SLP204 DENSITY ALT 1000FT=

TAF CYOW 061738Z 0618/0718 VRB03KT P6SM SCT040 TEMPO 0618/0624 BKN040
FM070000 15005KT P6SM FEW050
BECMG 0705/0707 VRB03KT
BECMG 0714/0716 12005KT
RMK NXT FCST BY 062100Z=

OTTAWA/GATINEAU/QC    

METAR CYND 061800Z 00000KT 15SM SCT055 SCT100 23/12 A3010 RMK CU3AC1 AC TR SLP195 DENSITY ALT 1100FT=
METAR CYND 061700Z 25003KT 240V330 15SM FEW045 22/13 A3011 RMK CU2 SLP198 DENSITY ALT 900FT=
METAR CYND 061600Z VRB06KT 15SM FEW041 FEW200 22/13 A3011 RMK CU1CI1 CI TR SLP200 DENSITY ALT 900FT=

TAF CYND 061738Z 0618/0701 25005KT P6SM SCT040 TEMPO 0618/0624 BKN040
FM070000 VRB03KT P6SM FEW050
RMK NXT FCST WILL BE ISSUED AT 071245Z=


GRAPHICAL FA CLOUDS & WEATHER FORECASTS
To the Product Selector
Graphical FA gfacn33      

GRAPHICAL FA ICING, TURBULENCE & FREEZING LEVEL FORECASTS
To the Product Selector
Graphical FA gfacn33      

Your time UTC time
Weather data provided by Environment Canada and NAV CANADA